Time;durP1;ratioP1;P1;durP2;ratioP2;P2;SDS_P1;SDS_P2;PMS_P1;PMS_P2;Temp;Humidity;BMP_temperature;BMP_pressure;BME280_temperature;BME280_humidity;BME280_pressure;Samples;Min_cycle;Max_cycle;Signal;HPM_P1;HPM_P2
2021/03/04 00:01:00;;;;;;;25.80;15.70;;;;;;;;;;5120432;28;20836;-82
2021/03/04 00:03:27;;;;;;;36.10;17.87;;;;;;;;;;5122891;28;20456;-82
2021/03/04 00:05:55;;;;;;;32.33;15.63;;;;;;;;;;5126666;28;20499;-80
2021/03/04 00:08:22;;;;;;;34.13;18.90;;;;;;;;;;5127819;28;20572;-82
2021/03/04 00:10:49;;;;;;;28.30;18.00;;;;;;;;;;5127153;28;20449;-82
2021/03/04 00:13:17;;;;;;;28.17;16.07;;;;;;;;;;5127344;28;20448;-81
2021/03/04 00:15:45;;;;;;;28.43;14.10;;;;;;;;;;5126934;28;20444;-82
2021/03/04 00:18:12;;;;;;;28.30;15.37;;;;;;;;;;5126728;28;20453;-81
2021/03/04 00:20:40;;;;;;;36.03;19.10;;;;;;;;;;5127094;28;20522;-82
2021/03/04 00:23:07;;;;;;;31.07;16.23;;;;;;;;;;5127365;28;20457;-82
2021/03/04 00:25:35;;;;;;;33.37;17.20;;;;;;;;;;5126652;28;20462;-82
2021/03/04 00:28:03;;;;;;;32.70;18.00;;;;;;;;;;5125654;28;20466;-80
2021/03/04 00:30:33;;;;;;;33.50;16.43;;;;;;;;;;5125998;28;20453;-80
2021/03/04 00:33:02;;;;;;;22.93;13.60;;;;;;;;;;5126980;28;20467;-81
2021/03/04 00:35:30;;;;;;;31.33;16.60;;;;;;;;;;5127271;28;20456;-81
2021/03/04 00:37:57;;;;;;;28.87;17.13;;;;;;;;;;5127862;28;20447;-82
2021/03/04 00:40:24;;;;;;;28.30;15.60;;;;;;;;;;5127684;28;20786;-81
2021/03/04 00:42:52;;;;;;;30.27;18.70;;;;;;;;;;5128011;28;20459;-81
2021/03/04 00:45:23;;;;;;;32.53;16.37;;;;;;;;;;5125807;28;20464;-81
2021/03/04 00:47:50;;;;;;;39.97;16.37;;;;;;;;;;5125457;28;20746;-80
2021/03/04 00:50:19;;;;;;;30.70;17.73;;;;;;;;;;5125204;28;20836;-81
2021/03/04 00:52:46;;;;;;;33.90;17.77;;;;;;;;;;5128442;28;20460;-82
2021/03/04 00:55:14;;;;;;;32.23;18.40;;;;;;;;;;5127113;28;20483;-82
2021/03/04 00:57:41;;;;;;;30.80;16.23;;;;;;;;;;5125932;28;20470;-81
2021/03/04 01:00:09;;;;;;;27.37;16.07;;;;;;;;;;5126477;28;20477;-81
2021/03/04 01:02:37;;;;;;;36.90;18.27;;;;;;;;;;5125224;28;20460;-82
2021/03/04 01:05:05;;;;;;;33.93;16.77;;;;;;;;;;5126932;28;20448;-81
2021/03/04 01:07:34;;;;;;;44.30;20.10;;;;;;;;;;5125401;28;20791;-81
2021/03/04 01:10:02;;;;;;;36.47;19.33;;;;;;;;;;5125557;28;20498;-81
2021/03/04 01:12:29;;;;;;;28.00;16.40;;;;;;;;;;5125587;28;20452;-80
2021/03/04 01:14:56;;;;;;;39.00;20.30;;;;;;;;;;5123870;28;20448;-81
2021/03/04 01:17:23;;;;;;;51.37;23.70;;;;;;;;;;5124418;28;20456;-81
2021/03/04 01:19:51;;;;;;;29.93;13.80;;;;;;;;;;5122986;28;20450;-80
2021/03/04 01:22:18;;;;;;;54.47;23.50;;;;;;;;;;5123370;28;20458;-80
2021/03/04 01:24:48;;;;;;;40.73;21.63;;;;;;;;;;5123686;28;20455;-81
2021/03/04 01:27:15;;;;;;;44.13;20.60;;;;;;;;;;5123263;28;20471;-82
2021/03/04 01:29:42;;;;;;;42.93;20.50;;;;;;;;;;5122826;28;20475;-81
2021/03/04 01:32:10;;;;;;;40.37;20.47;;;;;;;;;;5122540;28;20534;-82
2021/03/04 01:34:37;;;;;;;44.17;20.80;;;;;;;;;;5122395;28;20521;-81
2021/03/04 01:37:04;;;;;;;44.37;21.10;;;;;;;;;;5123373;28;20536;-82
2021/03/04 01:39:32;;;;;;;42.47;21.00;;;;;;;;;;5123596;28;20437;-81
2021/03/04 01:42:00;;;;;;;45.10;19.83;;;;;;;;;;5122241;28;20451;-80
2021/03/04 01:44:27;;;;;;;43.67;20.33;;;;;;;;;;5122395;28;20755;-82
2021/03/04 01:46:56;;;;;;;38.70;19.33;;;;;;;;;;5122728;28;20449;-81
2021/03/04 01:49:24;;;;;;;40.60;23.73;;;;;;;;;;5122022;28;20481;-81
2021/03/04 01:51:51;;;;;;;38.43;20.60;;;;;;;;;;5123892;28;20470;-81
2021/03/04 01:54:19;;;;;;;46.03;21.30;;;;;;;;;;5123179;28;20838;-80
2021/03/04 01:56:46;;;;;;;40.97;19.70;;;;;;;;;;5123174;28;20468;-81
2021/03/04 01:59:15;;;;;;;41.97;20.30;;;;;;;;;;5122712;28;20817;-80
2021/03/04 02:01:43;;;;;;;49.20;17.40;;;;;;;;;;5122052;28;20470;-80
2021/03/04 02:04:10;;;;;;;46.87;24.20;;;;;;;;;;5122287;28;20453;-81
2021/03/04 02:06:40;;;;;;;43.13;20.40;;;;;;;;;;5121840;28;20850;-81
2021/03/04 02:09:10;;;;;;;46.53;20.40;;;;;;;;;;5122558;28;20496;-81
2021/03/04 02:11:40;;;;;;;40.60;19.97;;;;;;;;;;5122562;28;20457;-82
2021/03/04 02:14:09;;;;;;;36.10;17.63;;;;;;;;;;5121416;28;20456;-80
2021/03/04 02:16:41;;;;;;;38.13;18.40;;;;;;;;;;5122302;28;20457;-81
2021/03/04 02:19:10;;;;;;;45.70;19.73;;;;;;;;;;5122214;28;20449;-81
2021/03/04 02:21:46;;;;;;;36.67;17.23;;;;;;;;;;5121861;28;20460;-81
2021/03/04 02:24:26;;;;;;;44.83;19.10;;;;;;;;;;5122346;28;20853;-82
2021/03/04 02:27:08;;;;;;;45.23;21.80;;;;;;;;;;5121501;28;20940;-80
2021/03/04 02:29:39;;;;;;;37.97;19.70;;;;;;;;;;5121519;28;20497;-81
2021/03/04 02:32:07;;;;;;;27.63;13.90;;;;;;;;;;5121339;28;20737;-81
2021/03/04 02:34:35;;;;;;;46.37;18.10;;;;;;;;;;5121669;28;20534;-82
2021/03/04 02:37:02;;;;;;;30.13;16.00;;;;;;;;;;5123128;28;20733;-80
2021/03/04 02:39:32;;;;;;;37.87;18.57;;;;;;;;;;5122165;28;20441;-82
2021/03/04 02:42:00;;;;;;;41.40;18.07;;;;;;;;;;5122011;28;20453;-81
2021/03/04 02:44:28;;;;;;;36.40;19.50;;;;;;;;;;5122190;28;20449;-81
2021/03/04 02:46:56;;;;;;;36.67;18.87;;;;;;;;;;5121742;28;20453;-80
2021/03/04 02:49:24;;;;;;;42.80;21.60;;;;;;;;;;5122113;28;20483;-81
2021/03/04 02:51:54;;;;;;;39.23;20.33;;;;;;;;;;5121398;28;20459;-81
2021/03/04 02:54:21;;;;;;;29.87;13.47;;;;;;;;;;5122180;28;20464;-79
2021/03/04 02:56:49;;;;;;;39.50;17.67;;;;;;;;;;5121697;28;20469;-81
2021/03/04 02:59:17;;;;;;;40.13;20.67;;;;;;;;;;5122651;28;20448;-80
2021/03/04 03:01:45;;;;;;;38.90;19.47;;;;;;;;;;5121280;28;21091;-81
2021/03/04 03:04:13;;;;;;;31.40;15.70;;;;;;;;;;5122546;28;20482;-80
2021/03/04 03:06:41;;;;;;;36.07;20.23;;;;;;;;;;5121580;28;20457;-80
2021/03/04 03:09:08;;;;;;;39.00;22.10;;;;;;;;;;5121251;28;20495;-82
2021/03/04 03:11:37;;;;;;;46.50;22.23;;;;;;;;;;5120948;28;20487;-79
2021/03/04 03:14:06;;;;;;;26.50;13.30;;;;;;;;;;5121347;28;20462;-80
2021/03/04 03:16:33;;;;;;;43.00;21.40;;;;;;;;;;5120917;28;20457;-80
2021/03/04 03:19:02;;;;;;;39.27;20.80;;;;;;;;;;5120937;28;20707;-81
2021/03/04 03:21:29;;;;;;;35.27;17.73;;;;;;;;;;5119245;28;20459;-80
2021/03/04 03:23:57;;;;;;;35.60;20.87;;;;;;;;;;5119756;28;20456;-81
2021/03/04 03:26:25;;;;;;;44.73;20.77;;;;;;;;;;5119525;28;20459;-80
2021/03/04 03:28:52;;;;;;;41.23;23.63;;;;;;;;;;5119578;28;20573;-80
2021/03/04 03:31:22;;;;;;;44.60;21.20;;;;;;;;;;5119527;28;20472;-81
2021/03/04 03:33:49;;;;;;;45.37;24.07;;;;;;;;;;5118966;28;20849;-81
2021/03/04 03:36:18;;;;;;;40.87;23.40;;;;;;;;;;5118947;28;20482;-81
2021/03/04 03:38:46;;;;;;;33.43;16.60;;;;;;;;;;5118652;28;20724;-80
2021/03/04 03:41:14;;;;;;;35.10;20.53;;;;;;;;;;5118550;28;20462;-80
2021/03/04 03:43:42;;;;;;;34.90;17.37;;;;;;;;;;5120820;28;20859;-80
2021/03/04 03:46:12;;;;;;;35.03;16.97;;;;;;;;;;5121542;28;20472;-81
2021/03/04 03:48:39;;;;;;;41.53;19.80;;;;;;;;;;5122248;28;20519;-80
2021/03/04 03:51:07;;;;;;;32.47;17.20;;;;;;;;;;5121083;28;20436;-81
2021/03/04 03:53:36;;;;;;;38.87;19.23;;;;;;;;;;5120347;28;20457;-82
2021/03/04 03:56:03;;;;;;;39.87;17.67;;;;;;;;;;5118941;28;20743;-80
2021/03/04 03:58:32;;;;;;;33.03;18.03;;;;;;;;;;5119021;28;20452;-80
2021/03/04 04:00:59;;;;;;;38.33;19.63;;;;;;;;;;5118371;28;20610;-81
2021/03/04 04:03:27;;;;;;;32.80;18.60;;;;;;;;;;5117897;28;20460;-81
2021/03/04 04:05:54;;;;;;;34.40;17.83;;;;;;;;;;5119883;28;20459;-81
2021/03/04 04:08:23;;;;;;;29.37;14.63;;;;;;;;;;5119509;28;20453;-81
2021/03/04 04:10:52;;;;;;;34.80;16.93;;;;;;;;;;5119616;28;20488;-80
2021/03/04 04:13:19;;;;;;;21.37;15.37;;;;;;;;;;5120107;28;20448;-82
2021/03/04 04:15:47;;;;;;;26.70;14.33;;;;;;;;;;5119334;28;20447;-81
2021/03/04 04:18:15;;;;;;;21.53;13.13;;;;;;;;;;5120107;28;20457;-81
2021/03/04 04:20:42;;;;;;;28.70;16.40;;;;;;;;;;5119604;28;20452;-81
2021/03/04 04:23:10;;;;;;;28.17;14.23;;;;;;;;;;5119915;28;20460;-81
2021/03/04 04:25:40;;;;;;;31.00;14.50;;;;;;;;;;5120934;28;20451;-82
2021/03/04 04:28:08;;;;;;;20.70;12.83;;;;;;;;;;5120269;28;20462;-81
2021/03/04 04:30:37;;;;;;;21.67;12.00;;;;;;;;;;5119253;28;20491;-81
2021/03/04 04:33:04;;;;;;;19.87;11.00;;;;;;;;;;5120689;28;20456;-81
2021/03/04 04:35:33;;;;;;;20.53;10.73;;;;;;;;;;5119873;28;20534;-80
2021/03/04 04:38:00;;;;;;;22.67;11.87;;;;;;;;;;5103289;28;20452;-81
2021/03/04 04:40:28;;;;;;;20.63;12.97;;;;;;;;;;5120827;28;20507;-81
2021/03/04 04:42:55;;;;;;;21.47;11.63;;;;;;;;;;5120463;28;20603;-80
2021/03/04 04:45:24;;;;;;;14.17;9.70;;;;;;;;;;5120078;28;20892;-81
2021/03/04 04:47:51;;;;;;;21.90;11.50;;;;;;;;;;5120316;28;20466;-81
2021/03/04 04:50:19;;;;;;;21.80;12.07;;;;;;;;;;5121109;28;20544;-81
2021/03/04 04:52:46;;;;;;;20.03;10.50;;;;;;;;;;5124218;28;20866;-81
2021/03/04 04:55:23;;;;;;;18.47;11.60;;;;;;;;;;5124405;28;20730;-81
2021/03/04 04:57:50;;;;;;;13.30;8.07;;;;;;;;;;5123212;28;20459;-80
2021/03/04 05:00:18;;;;;;;21.80;10.27;;;;;;;;;;5124457;28;20451;-81
2021/03/04 05:02:47;;;;;;;16.23;9.87;;;;;;;;;;5123706;28;20935;-81
2021/03/04 05:05:14;;;;;;;17.70;9.83;;;;;;;;;;5122586;28;20456;-79
2021/03/04 05:07:42;;;;;;;19.13;9.60;;;;;;;;;;5123074;28;20726;-80
2021/03/04 05:10:10;;;;;;;19.13;9.47;;;;;;;;;;5122736;28;20636;-80
2021/03/04 05:12:38;;;;;;;16.17;10.03;;;;;;;;;;5123054;28;20455;-81
2021/03/04 05:15:06;;;;;;;19.57;10.13;;;;;;;;;;5122997;28;20790;-82
2021/03/04 05:17:33;;;;;;;16.10;9.77;;;;;;;;;;5122438;28;20474;-82
2021/03/04 05:20:01;;;;;;;18.97;10.90;;;;;;;;;;5122128;28;20448;-82
2021/03/04 05:22:29;;;;;;;15.47;9.70;;;;;;;;;;5121268;28;20467;-81
2021/03/04 05:24:56;;;;;;;18.27;9.87;;;;;;;;;;5122378;28;20790;-82
2021/03/04 05:27:26;;;;;;;14.43;8.20;;;;;;;;;;5121654;28;20893;-81
2021/03/04 05:29:53;;;;;;;18.83;10.40;;;;;;;;;;5121878;28;20492;-80
2021/03/04 05:32:20;;;;;;;19.60;9.50;;;;;;;;;;5121886;28;20548;-81
2021/03/04 05:34:48;;;;;;;16.50;8.40;;;;;;;;;;5121001;28;20455;-82
2021/03/04 05:37:16;;;;;;;18.63;8.87;;;;;;;;;;5122204;28;20461;-80
2021/03/04 05:39:43;;;;;;;8.73;4.97;;;;;;;;;;5122798;28;20448;-79
2021/03/04 05:42:11;;;;;;;10.03;5.83;;;;;;;;;;5121576;28;20448;-82
2021/03/04 05:44:39;;;;;;;6.50;3.90;;;;;;;;;;5122071;28;20548;-81
2021/03/04 05:47:06;;;;;;;8.90;3.93;;;;;;;;;;5122564;28;20461;-80
2021/03/04 05:49:39;;;;;;;9.57;5.70;;;;;;;;;;5122399;28;20494;-81
2021/03/04 05:52:09;;;;;;;10.47;5.03;;;;;;;;;;5121382;28;20536;-80
2021/03/04 05:54:39;;;;;;;11.90;4.73;;;;;;;;;;5122969;28;20966;-81
2021/03/04 05:57:06;;;;;;;12.93;5.00;;;;;;;;;;5121680;28;20456;-81
2021/03/04 05:59:34;;;;;;;9.23;6.10;;;;;;;;;;5122259;28;20452;-81
2021/03/04 06:02:02;;;;;;;8.30;3.90;;;;;;;;;;5122386;28;20460;-81
2021/03/04 06:04:30;;;;;;;8.80;3.87;;;;;;;;;;5123263;28;20753;-81
2021/03/04 06:06:57;;;;;;;9.17;4.60;;;;;;;;;;5122366;28;20474;-80
2021/03/04 06:09:25;;;;;;;4.57;3.13;;;;;;;;;;5122530;28;20816;-80
2021/03/04 06:11:53;;;;;;;4.93;3.00;;;;;;;;;;5122626;28;20863;-80
2021/03/04 06:14:21;;;;;;;9.97;5.23;;;;;;;;;;5122440;28;20452;-81
2021/03/04 06:16:48;;;;;;;7.80;4.03;;;;;;;;;;5124136;28;20448;-80
2021/03/04 06:19:19;;;;;;;5.87;3.83;;;;;;;;;;5122270;28;20470;-81
2021/03/04 06:21:46;;;;;;;5.80;4.10;;;;;;;;;;5122343;28;20458;-80
2021/03/04 06:24:14;;;;;;;7.07;3.90;;;;;;;;;;5122192;28;20507;-79
2021/03/04 06:26:42;;;;;;;8.13;4.33;;;;;;;;;;5122642;28;20754;-82
2021/03/04 06:29:13;;;;;;;11.40;5.10;;;;;;;;;;5120601;28;20495;-82
2021/03/04 06:31:41;;;;;;;7.83;4.50;;;;;;;;;;5122292;28;20475;-82
2021/03/04 06:34:18;;;;;;;10.17;4.27;;;;;;;;;;5122402;28;20448;-82
2021/03/04 06:36:56;;;;;;;7.27;4.60;;;;;;;;;;5121297;28;20565;-82
2021/03/04 06:39:24;;;;;;;8.63;4.20;;;;;;;;;;5120619;28;20932;-82
2021/03/04 06:42:01;;;;;;;7.33;4.33;;;;;;;;;;5121946;28;20449;-81
2021/03/04 06:44:29;;;;;;;13.00;4.33;;;;;;;;;;5121700;28;20681;-81
2021/03/04 06:46:57;;;;;;;5.63;3.57;;;;;;;;;;5121317;28;20455;-81
2021/03/04 06:49:25;;;;;;;5.70;3.50;;;;;;;;;;5121475;28;20944;-81
2021/03/04 06:51:53;;;;;;;8.13;4.30;;;;;;;;;;5121792;27;20454;-81
2021/03/04 06:54:23;;;;;;;6.50;3.53;;;;;;;;;;5120917;28;20546;-80
2021/03/04 06:56:51;;;;;;;7.13;4.47;;;;;;;;;;5121401;28;20463;-82
2021/03/04 06:59:18;;;;;;;10.00;5.67;;;;;;;;;;5120703;28;20448;-81
2021/03/04 07:01:46;;;;;;;7.53;5.00;;;;;;;;;;5119608;28;20849;-81
2021/03/04 07:04:14;;;;;;;6.40;3.23;;;;;;;;;;5120465;28;20857;-80
2021/03/04 07:06:42;;;;;;;6.63;4.57;;;;;;;;;;5120959;28;20445;-80
2021/03/04 07:09:09;;;;;;;5.70;4.20;;;;;;;;;;5120172;28;20484;-81
2021/03/04 07:11:37;;;;;;;6.40;3.50;;;;;;;;;;5121292;28;20763;-80
2021/03/04 07:14:06;;;;;;;5.57;3.30;;;;;;;;;;5120984;28;20441;-81
2021/03/04 07:16:34;;;;;;;7.73;4.37;;;;;;;;;;5120067;28;20762;-81
2021/03/04 07:19:03;;;;;;;5.87;3.97;;;;;;;;;;5119739;28;20447;-81
2021/03/04 07:21:34;;;;;;;5.23;4.03;;;;;;;;;;5119769;28;20456;-81
2021/03/04 07:24:04;;;;;;;7.90;4.20;;;;;;;;;;5119939;28;20448;-80
2021/03/04 07:26:31;;;;;;;6.20;4.50;;;;;;;;;;5128289;27;20859;-80
2021/03/04 07:29:00;;;;;;;6.60;3.93;;;;;;;;;;5142159;27;20759;-81
2021/03/04 07:31:27;;;;;;;6.10;4.10;;;;;;;;;;5142184;27;20456;-82
2021/03/04 07:33:56;;;;;;;5.73;3.70;;;;;;;;;;5139692;27;20450;-82
2021/03/04 07:36:25;;;;;;;5.20;4.00;;;;;;;;;;5139818;27;20450;-80
2021/03/04 07:38:56;;;;;;;6.17;4.33;;;;;;;;;;5121619;27;20508;-80
2021/03/04 07:41:24;;;;;;;8.03;3.63;;;;;;;;;;5117947;28;20464;-81
2021/03/04 07:43:52;;;;;;;4.77;3.00;;;;;;;;;;5120003;28;20452;-80
2021/03/04 07:46:37;;;;;;;8.50;3.90;;;;;;;;;;5119301;28;20461;-82
2021/03/04 07:49:05;;;;;;;4.90;2.43;;;;;;;;;;5118738;28;20486;-82
2021/03/04 07:51:44;;;;;;;6.53;4.20;;;;;;;;;;5119369;28;20854;-81
2021/03/04 07:54:12;;;;;;;7.70;2.87;;;;;;;;;;5119251;28;20454;-81
2021/03/04 07:56:39;;;;;;;5.70;3.70;;;;;;;;;;5118961;28;20928;-80
2021/03/04 07:59:10;;;;;;;6.27;2.83;;;;;;;;;;5119727;28;20550;-81
2021/03/04 08:01:38;;;;;;;5.57;3.93;;;;;;;;;;5119047;28;20462;-81
2021/03/04 08:04:05;;;;;;;5.07;3.37;;;;;;;;;;5118406;28;20455;-81
2021/03/04 08:06:44;;;;;;;5.67;2.93;;;;;;;;;;5137544;28;20460;-81
2021/03/04 08:09:12;;;;;;;6.07;3.97;;;;;;;;;;5139536;28;20493;-79
2021/03/04 08:11:40;;;;;;;6.87;3.83;;;;;;;;;;5137035;28;20459;-80
2021/03/04 08:14:17;;;;;;;6.57;3.93;;;;;;;;;;5130135;28;20449;-80
2021/03/04 08:16:54;;;;;;;5.80;3.63;;;;;;;;;;5117484;28;20454;-78
2021/03/04 08:22:12;;;;;;;6.00;4.03;;;;;;;;;;5110184;28;20513;-81
2021/03/04 08:24:40;;;;;;;11.00;4.10;;;;;;;;;;5122035;28;20453;-80
2021/03/04 08:27:08;;;;;;;8.10;4.00;;;;;;;;;;5126255;28;20518;-80
2021/03/04 08:29:35;;;;;;;6.77;3.50;;;;;;;;;;5124996;28;20928;-80
2021/03/04 08:32:05;;;;;;;6.40;4.03;;;;;;;;;;5125405;28;20469;-80
2021/03/04 08:34:37;;;;;;;6.73;3.87;;;;;;;;;;5125225;28;20558;-79
2021/03/04 08:37:05;;;;;;;5.43;2.73;;;;;;;;;;5134043;27;20452;-80
2021/03/04 08:39:32;;;;;;;5.33;2.90;;;;;;;;;;5129929;27;20457;-81
2021/03/04 08:42:06;;;;;;;3.93;2.10;;;;;;;;;;5128437;27;20450;-79
2021/03/04 08:44:33;;;;;;;3.23;2.30;;;;;;;;;;5124965;28;20496;-80
2021/03/04 08:47:00;;;;;;;5.97;3.23;;;;;;;;;;5123143;28;20456;-81
2021/03/04 08:49:28;;;;;;;5.40;3.40;;;;;;;;;;5126173;28;20479;-79
2021/03/04 08:51:57;;;;;;;3.87;2.10;;;;;;;;;;5125822;28;20482;-81
2021/03/04 08:54:25;;;;;;;3.93;3.07;;;;;;;;;;5125793;28;20448;-81
2021/03/04 08:56:56;;;;;;;4.80;2.70;;;;;;;;;;5126705;28;20455;-81
2021/03/04 08:59:26;;;;;;;5.80;3.13;;;;;;;;;;5137214;27;20461;-81
2021/03/04 09:01:54;;;;;;;6.50;3.50;;;;;;;;;;5138756;27;20451;-80
2021/03/04 09:04:24;;;;;;;7.43;3.40;;;;;;;;;;5143512;27;20462;-79
2021/03/04 09:06:51;;;;;;;9.10;5.60;;;;;;;;;;5133288;27;20481;-80
2021/03/04 09:09:22;;;;;;;5.20;3.53;;;;;;;;;;5126743;27;20483;-81
2021/03/04 09:11:50;;;;;;;3.77;3.00;;;;;;;;;;5145369;27;20511;-81
2021/03/04 09:14:17;;;;;;;6.97;3.67;;;;;;;;;;5137623;27;20889;-80
2021/03/04 09:16:46;;;;;;;13.13;3.83;;;;;;;;;;5128141;27;20457;-81
2021/03/04 09:19:14;;;;;;;4.90;2.87;;;;;;;;;;5134972;27;20824;-81
2021/03/04 09:21:41;;;;;;;5.27;2.90;;;;;;;;;;5130743;27;20465;-80
2021/03/04 09:24:10;;;;;;;6.17;3.00;;;;;;;;;;5139654;27;20464;-81
2021/03/04 09:26:39;;;;;;;3.30;2.33;;;;;;;;;;5137159;27;20492;-81
2021/03/04 09:29:07;;;;;;;6.67;3.13;;;;;;;;;;5137164;27;20487;-80
2021/03/04 09:31:34;;;;;;;4.23;2.77;;;;;;;;;;5134840;27;20448;-80
2021/03/04 09:34:04;;;;;;;6.13;3.00;;;;;;;;;;5127603;27;20450;-80
2021/03/04 09:36:32;;;;;;;6.90;3.33;;;;;;;;;;5138174;27;20483;-80
2021/03/04 09:39:00;;;;;;;4.80;3.37;;;;;;;;;;5124036;28;20503;-81
2021/03/04 09:41:27;;;;;;;4.93;3.07;;;;;;;;;;5120158;28;20542;-80
2021/03/04 09:46:58;;;;;;;5.53;3.50;;;;;;;;;;5121404;28;20391;-81
2021/03/04 09:49:34;;;;;;;4.67;3.10;;;;;;;;;;5120531;28;20541;-80
2021/03/04 09:52:01;;;;;;;6.07;3.50;;;;;;;;;;5128616;27;20521;-79
2021/03/04 09:54:31;;;;;;;6.90;3.17;;;;;;;;;;5142110;27;20456;-80
2021/03/04 09:57:05;;;;;;;3.20;2.50;;;;;;;;;;5135899;27;20461;-81
2021/03/04 09:59:32;;;;;;;8.50;3.47;;;;;;;;;;5139730;27;20473;-80
2021/03/04 10:02:00;;;;;;;8.50;4.00;;;;;;;;;;5124710;27;20576;-81
2021/03/04 10:04:29;;;;;;;5.40;3.60;;;;;;;;;;5121041;28;20446;-81
2021/03/04 10:07:09;;;;;;;6.97;4.10;;;;;;;;;;5121094;28;20549;-82
2021/03/04 10:09:39;;;;;;;6.17;3.27;;;;;;;;;;5119733;28;20754;-81
2021/03/04 10:12:06;;;;;;;7.53;2.60;;;;;;;;;;5124989;28;20472;-81
2021/03/04 10:14:47;;;;;;;4.37;2.30;;;;;;;;;;5123706;28;20485;-80
2021/03/04 10:17:21;;;;;;;4.73;3.37;;;;;;;;;;5125964;28;20873;-79
2021/03/04 10:19:49;;;;;;;5.13;3.33;;;;;;;;;;5122423;28;20448;-80
2021/03/04 10:22:16;;;;;;;4.83;3.63;;;;;;;;;;5124896;28;20458;-82
2021/03/04 10:24:44;;;;;;;5.60;3.27;;;;;;;;;;5126415;27;20443;-82
2021/03/04 10:27:11;;;;;;;5.43;3.37;;;;;;;;;;5137500;27;20470;-81
2021/03/04 10:29:39;;;;;;;4.37;3.50;;;;;;;;;;5126103;28;20484;-81
2021/03/04 10:32:07;;;;;;;7.70;3.37;;;;;;;;;;5146300;27;20492;-81
2021/03/04 10:34:34;;;;;;;7.93;3.30;;;;;;;;;;5146707;27;20587;-82
2021/03/04 10:37:03;;;;;;;4.07;3.67;;;;;;;;;;5123177;28;20461;-81
2021/03/04 10:39:30;;;;;;;5.60;3.47;;;;;;;;;;5122517;28;20779;-81
2021/03/04 10:41:57;;;;;;;6.63;3.53;;;;;;;;;;5141605;27;21001;-80
2021/03/04 10:44:25;;;;;;;6.23;3.57;;;;;;;;;;5142841;27;20442;-83
2021/03/04 10:46:53;;;;;;;13.13;5.63;;;;;;;;;;5123518;27;20453;-82
2021/03/04 10:49:21;;;;;;;5.43;2.80;;;;;;;;;;5120042;28;20478;-82
2021/03/04 10:51:48;;;;;;;11.43;10.13;;;;;;;;;;5134480;27;20453;-80
2021/03/04 10:54:16;;;;;;;7.33;5.83;;;;;;;;;;5142219;27;20477;-82
2021/03/04 10:56:44;;;;;;;11.73;10.83;;;;;;;;;;5124532;27;20459;-80
2021/03/04 10:59:11;;;;;;;11.53;10.67;;;;;;;;;;5119888;28;20523;-82
2021/03/04 11:01:39;;;;;;;23.10;21.00;;;;;;;;;;5134621;27;20487;-80
2021/03/04 11:04:06;;;;;;;11.40;7.63;;;;;;;;;;5142444;27;20864;-80
2021/03/04 11:06:34;;;;;;;13.07;11.80;;;;;;;;;;5126525;27;20452;-79
2021/03/04 11:09:02;;;;;;;14.77;13.50;;;;;;;;;;5120074;28;20521;-79
2021/03/04 11:11:30;;;;;;;14.57;13.10;;;;;;;;;;5121550;28;20462;-79
2021/03/04 11:13:58;;;;;;;16.70;15.50;;;;;;;;;;5121040;28;20454;-80
2021/03/04 11:16:25;;;;;;;21.87;20.33;;;;;;;;;;5131531;27;20454;-79
2021/03/04 11:18:52;;;;;;;29.03;26.10;;;;;;;;;;5139817;27;20450;-80
2021/03/04 11:21:20;;;;;;;25.50;23.43;;;;;;;;;;5130268;27;20476;-80
2021/03/04 11:23:47;;;;;;;26.43;24.10;;;;;;;;;;5121258;28;20447;-82
2021/03/04 11:26:15;;;;;;;27.00;24.50;;;;;;;;;;5120617;27;20873;-82
2021/03/04 11:28:43;;;;;;;26.37;24.10;;;;;;;;;;5122694;28;20922;-81
2021/03/04 11:31:10;;;;;;;28.00;25.60;;;;;;;;;;5126465;27;21056;-81
2021/03/04 11:33:39;;;;;;;19.57;17.90;;;;;;;;;;5128457;27;20448;-80
2021/03/04 11:36:07;;;;;;;19.97;18.57;;;;;;;;;;5141833;27;20455;-79
2021/03/04 11:38:34;;;;;;;18.53;17.27;;;;;;;;;;5132622;27;20451;-80
2021/03/04 11:41:02;;;;;;;18.67;16.80;;;;;;;;;;5124121;27;20461;-80
2021/03/04 11:43:30;;;;;;;24.70;21.90;;;;;;;;;;5135063;27;20450;-79
2021/03/04 11:45:58;;;;;;;25.60;23.80;;;;;;;;;;5123532;28;20447;-81
2021/03/04 11:48:26;;;;;;;31.37;28.50;;;;;;;;;;5120221;27;20707;-81
2021/03/04 11:50:53;;;;;;;38.93;34.73;;;;;;;;;;5120846;28;20485;-82
2021/03/04 11:53:22;;;;;;;31.47;28.53;;;;;;;;;;5125939;27;21071;-80
2021/03/04 11:55:50;;;;;;;41.90;37.63;;;;;;;;;;5119761;28;20456;-78
2021/03/04 11:58:17;;;;;;;48.37;41.60;;;;;;;;;;5128768;27;20499;-81
2021/03/04 12:00:45;;;;;;;52.00;42.40;;;;;;;;;;5120974;28;20442;-81
2021/03/04 12:03:13;;;;;;;52.83;43.40;;;;;;;;;;5134256;28;20462;-79
2021/03/04 12:05:41;;;;;;;47.50;40.20;;;;;;;;;;5141470;28;20452;-80
2021/03/04 12:08:09;;;;;;;47.47;42.40;;;;;;;;;;5127646;28;20468;-80
2021/03/04 12:10:37;;;;;;;52.23;43.93;;;;;;;;;;5123516;28;20884;-80
2021/03/04 12:13:04;;;;;;;62.60;46.40;;;;;;;;;;5119957;28;20495;-82
2021/03/04 12:15:32;;;;;;;63.83;46.03;;;;;;;;;;5128061;28;20455;-81
2021/03/04 12:18:00;;;;;;;70.50;51.73;;;;;;;;;;5127675;28;20965;-81
2021/03/04 12:20:28;;;;;;;80.23;52.20;;;;;;;;;;5135388;28;20452;-79
2021/03/04 12:22:55;;;;;;;67.17;47.13;;;;;;;;;;5135509;28;20504;-80
2021/03/04 12:25:25;;;;;;;94.97;53.40;;;;;;;;;;5125020;28;20450;-82
2021/03/04 12:27:53;;;;;;;66.57;49.03;;;;;;;;;;5136073;28;20452;-82
2021/03/04 12:30:21;;;;;;;82.90;49.57;;;;;;;;;;5140485;28;20485;-81
2021/03/04 12:32:48;;;;;;;44.60;38.07;;;;;;;;;;5124663;28;20458;-82
2021/03/04 12:35:16;;;;;;;41.47;31.07;;;;;;;;;;5126041;28;20912;-81
2021/03/04 12:37:47;;;;;;;46.93;41.37;;;;;;;;;;5137312;28;20451;-82
2021/03/04 12:40:15;;;;;;;50.10;41.17;;;;;;;;;;5142039;28;20476;-79
2021/03/04 12:42:42;;;;;;;52.50;37.87;;;;;;;;;;5143749;28;20446;-82
2021/03/04 12:45:10;;;;;;;49.67;40.10;;;;;;;;;;5141567;28;20501;-83
2021/03/04 12:47:38;;;;;;;43.73;39.10;;;;;;;;;;5127762;28;20443;-81
2021/03/04 12:50:06;;;;;;;43.03;38.50;;;;;;;;;;5132588;28;20481;-82
2021/03/04 12:52:34;;;;;;;41.67;35.30;;;;;;;;;;5123816;28;20462;-83
2021/03/04 12:55:04;;;;;;;41.70;37.30;;;;;;;;;;5120832;28;20469;-83
2021/03/04 12:57:31;;;;;;;53.93;43.50;;;;;;;;;;5133238;28;20442;-79
2021/03/04 13:00:09;;;;;;;64.23;48.57;;;;;;;;;;5125022;28;20450;-82
2021/03/04 13:02:37;;;;;;;73.93;48.70;;;;;;;;;;5129155;28;20457;-82
2021/03/04 13:05:05;;;;;;;89.00;53.87;;;;;;;;;;5126963;28;20448;-82
2021/03/04 13:07:33;;;;;;;91.30;50.67;;;;;;;;;;5135159;28;20446;-81
2021/03/04 13:10:01;;;;;;;111.93;58.30;;;;;;;;;;5128509;28;20492;-84
2021/03/04 13:12:29;;;;;;;89.23;50.20;;;;;;;;;;5136541;27;20443;-84
2021/03/04 13:14:59;;;;;;;44.57;39.67;;;;;;;;;;5128339;27;20511;-83
2021/03/04 13:17:27;;;;;;;71.23;48.90;;;;;;;;;;5125468;27;20454;-81
2021/03/04 13:19:55;;;;;;;68.77;47.20;;;;;;;;;;5129681;27;20512;-83
2021/03/04 13:22:23;;;;;;;65.80;46.60;;;;;;;;;;5132603;28;20838;-83
2021/03/04 13:24:50;;;;;;;77.13;50.57;;;;;;;;;;5142484;27;20454;-82
2021/03/04 13:27:26;;;;;;;70.20;46.03;;;;;;;;;;5152257;27;20453;-83
2021/03/04 13:29:55;;;;;;;47.17;37.97;;;;;;;;;;5148831;27;20490;-83
2021/03/04 13:32:23;;;;;;;64.63;48.90;;;;;;;;;;5153663;27;20455;-85
2021/03/04 13:34:52;;;;;;;66.63;46.40;;;;;;;;;;5152678;27;20452;-82
2021/03/04 13:37:19;;;;;;;72.57;49.07;;;;;;;;;;5132601;28;20434;-83
2021/03/04 13:39:47;;;;;;;75.50;47.90;;;;;;;;;;5132548;28;20483;-83
2021/03/04 13:42:14;;;;;;;90.83;53.83;;;;;;;;;;5148491;27;20453;-84
2021/03/04 13:44:42;;;;;;;92.67;55.40;;;;;;;;;;5132141;27;20462;-81
2021/03/04 13:47:11;;;;;;;54.93;42.30;;;;;;;;;;5147325;27;20471;-82
2021/03/04 13:49:38;;;;;;;58.63;45.77;;;;;;;;;;5143155;27;20471;-82
2021/03/04 13:52:06;;;;;;;66.23;47.57;;;;;;;;;;5129502;27;20454;-83
2021/03/04 13:54:34;;;;;;;72.00;49.30;;;;;;;;;;5134952;27;20466;-83
2021/03/04 13:57:01;;;;;;;81.87;48.10;;;;;;;;;;5125727;28;20458;-83
2021/03/04 13:59:29;;;;;;;87.37;50.00;;;;;;;;;;5137960;27;20812;-82
2021/03/04 14:01:59;;;;;;;77.53;48.40;;;;;;;;;;5146656;27;20441;-82
2021/03/04 14:04:27;;;;;;;77.50;46.90;;;;;;;;;;5150455;27;20462;-82
2021/03/04 14:06:55;;;;;;;80.03;49.40;;;;;;;;;;5151409;27;20441;-83
2021/03/04 14:09:23;;;;;;;82.63;50.80;;;;;;;;;;5149233;27;20445;-83
2021/03/04 14:11:51;;;;;;;96.13;52.90;;;;;;;;;;5149135;27;20448;-83
2021/03/04 14:14:18;;;;;;;94.67;51.77;;;;;;;;;;5148849;27;20457;-80
2021/03/04 14:16:46;;;;;;;97.17;53.03;;;;;;;;;;5148916;27;20446;-83
2021/03/04 14:19:13;;;;;;;108.40;56.43;;;;;;;;;;5149929;27;20453;-82
2021/03/04 14:21:42;;;;;;;100.77;54.00;;;;;;;;;;5144858;27;20449;-82
2021/03/04 14:24:09;;;;;;;92.60;53.43;;;;;;;;;;5145905;27;20454;-82
2021/03/04 14:26:38;;;;;;;102.90;53.77;;;;;;;;;;5148354;27;20486;-83
2021/03/04 14:29:06;;;;;;;88.53;49.60;;;;;;;;;;5150108;27;20460;-83
2021/03/04 14:31:33;;;;;;;111.17;57.20;;;;;;;;;;5148096;27;20482;-83
2021/03/04 14:34:05;;;;;;;124.50;56.53;;;;;;;;;;5146417;27;20460;-83
2021/03/04 14:36:35;;;;;;;109.47;55.10;;;;;;;;;;5130563;27;20439;-83
2021/03/04 14:39:04;;;;;;;111.47;55.60;;;;;;;;;;5140668;27;20461;-82